Time;durP1;ratioP1;P1;durP2;ratioP2;P2;SDS_P1;SDS_P2;PMS_P1;PMS_P2;Temp;Humidity;BMP_temperature;BMP_pressure;BME280_temperature;BME280_humidity;BME280_pressure;Samples;Min_cycle;Max_cycle;Signal;HPM_P1;HPM_P2
2022/01/18 05:01:23;;;;;;;3.70;1.47;;;;;;;;;;6313913;22;20011;-84
2022/01/18 05:07:41;;;;;;;7.40;2.33;;;;;;;;;;6319613;22;20023;-84
2022/01/18 05:14:35;;;;;;;10.52;2.58;;;;;;;;;;6367240;22;19998;-85
2022/01/18 05:17:21;;;;;;;7.67;2.67;;;;;;;;;;6340099;22;20010;-85
2022/01/18 05:20:26;;;;;;;4.85;2.15;;;;;;;;;;6339775;22;20029;-84
2022/01/18 05:23:04;;;;;;;4.00;1.52;;;;;;;;;;6338354;22;20017;-84
2022/01/18 05:26:01;;;;;;;3.15;1.45;;;;;;;;;;6339334;22;20090;-84
2022/01/18 05:28:46;;;;;;;4.93;1.80;;;;;;;;;;6338551;22;20022;-83
2022/01/18 05:31:29;;;;;;;3.53;1.50;;;;;;;;;;6364787;22;20046;-82
2022/01/18 05:34:13;;;;;;;7.38;1.55;;;;;;;;;;6312656;22;20003;-85
2022/01/18 06:09:38;;;;;;;11.10;3.60;;;;;;;;;;6262897;22;20004;-79
2022/01/18 06:20:53;;;;;;;7.82;3.05;;;;;;;;;;6290825;22;20019;-77
2022/01/18 06:26:28;;;;;;;8.32;3.25;;;;;;;;;;6287498;22;20028;-78
2022/01/18 06:29:00;;;;;;;6.65;3.65;;;;;;;;;;6276624;22;20393;-77
2022/01/18 06:31:29;;;;;;;7.37;3.23;;;;;;;;;;6248040;22;20043;-75
2022/01/18 06:33:59;;;;;;;11.50;4.15;;;;;;;;;;6274195;22;20012;-75
2022/01/18 06:36:28;;;;;;;9.80;3.83;;;;;;;;;;6245166;22;20051;-75
2022/01/18 06:38:57;;;;;;;9.32;3.38;;;;;;;;;;6274214;22;20022;-75
2022/01/18 06:41:28;;;;;;;8.02;2.92;;;;;;;;;;6270660;22;20423;-75
2022/01/18 06:43:56;;;;;;;11.10;4.30;;;;;;;;;;6246231;22;20339;-75
2022/01/18 06:46:26;;;;;;;7.05;3.05;;;;;;;;;;6272032;22;20020;-75
2022/01/18 06:48:56;;;;;;;12.63;3.83;;;;;;;;;;6273316;22;20026;-75
2022/01/18 06:51:24;;;;;;;12.52;3.22;;;;;;;;;;6274985;22;20317;-75
2022/01/18 06:53:53;;;;;;;9.73;4.05;;;;;;;;;;6274947;22;20008;-75
2022/01/18 06:56:23;;;;;;;7.97;3.50;;;;;;;;;;6275346;22;20031;-76
2022/01/18 06:58:53;;;;;;;5.93;2.35;;;;;;;;;;6272332;22;20031;-75
2022/01/18 07:01:23;;;;;;;6.20;2.95;;;;;;;;;;6248191;22;20023;-75
2022/01/18 07:03:53;;;;;;;10.68;3.10;;;;;;;;;;6273897;22;20015;-75
2022/01/18 07:06:23;;;;;;;11.30;3.83;;;;;;;;;;6274935;22;20095;-76
2022/01/18 07:08:52;;;;;;;9.80;3.57;;;;;;;;;;6274081;22;20378;-76
2022/01/18 07:11:22;;;;;;;7.20;2.97;;;;;;;;;;6274846;22;20026;-75
2022/01/18 07:13:54;;;;;;;7.32;3.03;;;;;;;;;;6274542;22;20016;-75
2022/01/18 07:16:24;;;;;;;12.45;3.55;;;;;;;;;;6273206;22;20016;-75
2022/01/18 07:19:18;;;;;;;10.95;3.53;;;;;;;;;;6274627;22;20043;-75
2022/01/18 07:21:56;;;;;;;9.60;2.60;;;;;;;;;;6274049;22;20016;-75
2022/01/18 07:24:39;;;;;;;10.38;3.75;;;;;;;;;;6248480;22;20019;-75
2022/01/18 07:27:09;;;;;;;12.80;3.53;;;;;;;;;;6275995;22;20455;-76
2022/01/18 07:29:41;;;;;;;9.43;2.97;;;;;;;;;;6275580;22;20463;-76
2022/01/18 07:32:10;;;;;;;11.82;3.03;;;;;;;;;;6248480;22;20020;-76
2022/01/18 07:35:03;;;;;;;10.60;3.60;;;;;;;;;;6276616;22;20015;-76
2022/01/18 07:37:32;;;;;;;10.93;3.80;;;;;;;;;;6274124;22;20016;-76
2022/01/18 07:40:01;;;;;;;11.63;3.65;;;;;;;;;;6273467;22;20030;-75
2022/01/18 07:42:35;;;;;;;6.03;2.90;;;;;;;;;;6273374;22;20091;-75
2022/01/18 07:45:06;;;;;;;7.53;3.05;;;;;;;;;;6275056;22;20046;-75
2022/01/18 07:47:35;;;;;;;10.70;3.63;;;;;;;;;;6246429;22;20509;-75
2022/01/18 07:50:04;;;;;;;8.00;4.00;;;;;;;;;;6274715;22;20508;-75
2022/01/18 07:52:35;;;;;;;13.35;3.25;;;;;;;;;;6273719;22;20765;-75
2022/01/18 07:55:05;;;;;;;8.30;3.38;;;;;;;;;;6275768;22;20020;-75
2022/01/18 07:57:34;;;;;;;13.10;2.97;;;;;;;;;;6274190;22;20069;-76
2022/01/18 08:00:04;;;;;;;6.43;2.57;;;;;;;;;;6274440;22;20020;-76
2022/01/18 08:02:42;;;;;;;5.63;2.58;;;;;;;;;;6276771;22;20046;-76
2022/01/18 08:05:12;;;;;;;10.63;3.28;;;;;;;;;;6274144;22;20024;-76
2022/01/18 08:07:41;;;;;;;10.10;3.10;;;;;;;;;;6276448;22;20042;-75
2022/01/18 08:10:11;;;;;;;8.60;2.70;;;;;;;;;;6248647;22;20023;-75
2022/01/18 08:12:46;;;;;;;5.57;2.40;;;;;;;;;;6275672;22;20024;-75
2022/01/18 08:15:18;;;;;;;6.38;2.85;;;;;;;;;;6274884;22;20024;-75
2022/01/18 08:18:16;;;;;;;8.73;2.05;;;;;;;;;;6275791;22;20043;-75
2022/01/18 08:20:47;;;;;;;6.03;1.85;;;;;;;;;;6274945;22;20015;-75
2022/01/18 08:23:15;;;;;;;6.60;2.30;;;;;;;;;;6275945;22;20446;-75
2022/01/18 08:25:45;;;;;;;5.90;2.63;;;;;;;;;;6275785;22;20015;-75
2022/01/18 08:28:13;;;;;;;5.63;2.00;;;;;;;;;;6275326;22;20019;-75
2022/01/18 08:30:42;;;;;;;7.47;2.63;;;;;;;;;;6275841;22;20021;-75
2022/01/18 08:33:11;;;;;;;5.70;1.90;;;;;;;;;;6274799;22;20028;-75
2022/01/18 08:35:41;;;;;;;8.32;2.80;;;;;;;;;;6275838;22;20019;-75
2022/01/18 08:38:11;;;;;;;5.40;2.30;;;;;;;;;;6274044;22;20016;-75
2022/01/18 08:40:41;;;;;;;5.30;1.45;;;;;;;;;;6276261;22;20015;-75
2022/01/18 08:43:10;;;;;;;5.90;2.05;;;;;;;;;;6275670;22;20015;-75
2022/01/18 08:45:38;;;;;;;9.18;2.60;;;;;;;;;;6276017;22;20015;-76
2022/01/18 08:48:08;;;;;;;3.20;1.35;;;;;;;;;;6275163;22;20029;-76
2022/01/18 08:51:02;;;;;;;4.90;1.90;;;;;;;;;;6275857;22;20011;-76
2022/01/18 08:53:33;;;;;;;7.45;1.67;;;;;;;;;;6247996;22;20016;-76
2022/01/18 08:56:02;;;;;;;5.90;2.10;;;;;;;;;;6249252;22;20344;-75
2022/01/18 08:58:32;;;;;;;7.38;2.03;;;;;;;;;;6248329;22;20012;-76
2022/01/18 09:01:01;;;;;;;5.68;1.48;;;;;;;;;;6275538;22;20018;-75
2022/01/18 09:03:31;;;;;;;6.93;1.50;;;;;;;;;;6275695;22;20015;-75
2022/01/18 09:06:03;;;;;;;2.83;0.73;;;;;;;;;;6274475;22;20024;-75
2022/01/18 09:08:36;;;;;;;3.40;1.20;;;;;;;;;;6275764;22;20022;-77
2022/01/18 09:11:13;;;;;;;11.65;1.73;;;;;;;;;;6275250;22;20085;-76
2022/01/18 09:13:42;;;;;;;9.95;1.48;;;;;;;;;;6276533;22;20020;-76
2022/01/18 09:16:14;;;;;;;3.57;1.00;;;;;;;;;;6247884;22;20034;-75
2022/01/18 09:18:44;;;;;;;4.15;0.85;;;;;;;;;;6276185;22;20086;-75
2022/01/18 09:21:16;;;;;;;6.97;1.10;;;;;;;;;;6247448;22;20438;-75
2022/01/18 09:23:52;;;;;;;2.35;0.85;;;;;;;;;;6274853;22;20435;-76
2022/01/18 09:26:22;;;;;;;5.05;1.30;;;;;;;;;;6274355;22;20054;-75
2022/01/18 09:28:51;;;;;;;2.90;0.63;;;;;;;;;;6248901;22;20019;-75
2022/01/18 09:31:21;;;;;;;7.07;0.93;;;;;;;;;;6274223;22;20389;-75
2022/01/18 09:33:49;;;;;;;4.78;0.73;;;;;;;;;;6273283;22;20034;-76
2022/01/18 09:36:19;;;;;;;6.75;1.13;;;;;;;;;;6247824;22;20023;-76
2022/01/18 09:38:48;;;;;;;6.47;1.63;;;;;;;;;;6275150;22;20098;-76
2022/01/18 09:44:13;;;;;;;3.58;0.63;;;;;;;;;;6274334;22;20046;-75
2022/01/18 09:47:11;;;;;;;5.05;1.00;;;;;;;;;;6275155;22;20015;-75
2022/01/18 09:49:40;;;;;;;4.85;0.50;;;;;;;;;;6276894;22;20061;-75
2022/01/18 09:52:10;;;;;;;1.83;0.47;;;;;;;;;;6273684;22;20018;-76
2022/01/18 09:54:39;;;;;;;4.53;0.97;;;;;;;;;;6274049;22;20011;-76
2022/01/18 09:57:09;;;;;;;3.53;1.30;;;;;;;;;;6273225;22;20019;-76
2022/01/18 09:59:39;;;;;;;3.67;0.93;;;;;;;;;;6244095;22;20023;-75
2022/01/18 10:02:10;;;;;;;3.85;0.98;;;;;;;;;;6272649;22;20028;-75
2022/01/18 10:04:40;;;;;;;2.60;0.90;;;;;;;;;;6269362;22;20518;-76
2022/01/18 10:07:11;;;;;;;2.60;0.90;;;;;;;;;;6274989;22;20047;-75
2022/01/18 10:09:41;;;;;;;4.95;0.90;;;;;;;;;;6274518;22;20023;-75
2022/01/18 10:12:13;;;;;;;2.40;0.77;;;;;;;;;;6274396;22;20447;-75
2022/01/18 10:14:59;;;;;;;3.72;1.35;;;;;;;;;;6278418;22;20018;-79
2022/01/18 10:17:32;;;;;;;3.20;1.45;;;;;;;;;;6277297;22;20077;-79
2022/01/18 10:20:05;;;;;;;7.20;1.00;;;;;;;;;;6281731;22;20054;-78
2022/01/18 10:22:40;;;;;;;3.28;0.60;;;;;;;;;;6269262;22;20015;-78
2022/01/18 10:25:17;;;;;;;3.10;0.60;;;;;;;;;;6254754;23;20024;-80
2022/01/18 10:27:51;;;;;;;4.15;0.90;;;;;;;;;;6227633;22;20024;-79
2022/01/18 10:30:49;;;;;;;2.58;0.75;;;;;;;;;;6246793;22;20020;-76
2022/01/18 10:33:27;;;;;;;2.00;0.67;;;;;;;;;;6238960;23;20040;-78
2022/01/18 10:36:26;;;;;;;2.42;0.80;;;;;;;;;;6237836;23;20069;-76
2022/01/18 10:39:22;;;;;;;4.00;0.88;;;;;;;;;;6214635;23;20016;-76
2022/01/18 10:41:52;;;;;;;4.03;0.80;;;;;;;;;;6242348;23;20213;-75
2022/01/18 10:44:24;;;;;;;2.53;0.63;;;;;;;;;;6242832;23;20016;-76
2022/01/18 10:47:19;;;;;;;2.60;0.83;;;;;;;;;;6237961;23;20094;-76
2022/01/18 10:50:08;;;;;;;3.20;0.88;;;;;;;;;;6241176;23;20051;-76
2022/01/18 10:52:47;;;;;;;4.88;0.80;;;;;;;;;;6243890;23;20040;-76
2022/01/18 10:55:36;;;;;;;2.67;0.70;;;;;;;;;;6242443;23;20072;-76
2022/01/18 10:58:10;;;;;;;3.65;1.05;;;;;;;;;;6245984;23;20050;-76
2022/01/18 11:00:41;;;;;;;3.67;0.70;;;;;;;;;;6244137;23;20050;-76
2022/01/18 11:03:10;;;;;;;5.20;0.77;;;;;;;;;;6247399;23;20082;-77
2022/01/18 11:05:41;;;;;;;1.63;0.40;;;;;;;;;;6242732;23;20026;-76
2022/01/18 11:08:10;;;;;;;3.80;0.95;;;;;;;;;;6216465;23;20016;-75
2022/01/18 11:10:41;;;;;;;5.57;1.05;;;;;;;;;;6240745;23;20043;-75
2022/01/18 11:13:34;;;;;;;3.37;0.57;;;;;;;;;;6240343;23;20020;-75
2022/01/18 11:16:13;;;;;;;2.05;0.45;;;;;;;;;;6242037;23;20021;-75
2022/01/18 11:18:45;;;;;;;0.63;0.17;;;;;;;;;;6243156;23;20051;-75
2022/01/18 11:21:40;;;;;;;1.90;0.57;;;;;;;;;;6242113;23;20016;-75
2022/01/18 11:24:09;;;;;;;2.58;0.98;;;;;;;;;;6244446;23;20020;-75
2022/01/18 11:26:41;;;;;;;1.20;0.30;;;;;;;;;;6243069;23;20020;-74
2022/01/18 11:29:10;;;;;;;4.40;1.02;;;;;;;;;;6240698;22;20028;-74
2022/01/18 11:34:50;;;;;;;3.30;0.70;;;;;;;;;;6242322;23;20016;-74
2022/01/18 11:37:24;;;;;;;1.23;0.28;;;;;;;;;;6241198;23;20487;-74
2022/01/18 11:39:59;;;;;;;1.50;0.47;;;;;;;;;;6240858;23;20016;-74
2022/01/18 11:42:50;;;;;;;3.38;0.60;;;;;;;;;;6243610;23;20091;-74
2022/01/18 11:45:38;;;;;;;2.42;0.60;;;;;;;;;;6241843;23;20024;-74
2022/01/18 11:48:15;;;;;;;5.50;0.80;;;;;;;;;;6242856;23;20020;-74
2022/01/18 11:50:47;;;;;;;6.72;0.75;;;;;;;;;;6240675;23;20032;-74
2022/01/18 11:53:28;;;;;;;4.03;0.40;;;;;;;;;;6242028;23;20027;-74
2022/01/18 11:55:58;;;;;;;0.93;0.30;;;;;;;;;;6237461;23;20024;-74
2022/01/18 11:58:28;;;;;;;2.55;0.30;;;;;;;;;;6243916;23;20020;-74
2022/01/18 12:00:58;;;;;;;1.33;0.43;;;;;;;;;;6242281;23;20019;-74
2022/01/18 12:03:29;;;;;;;2.17;0.40;;;;;;;;;;6242593;23;20407;-74
2022/01/18 12:05:58;;;;;;;2.70;0.53;;;;;;;;;;6240710;23;20474;-75
2022/01/18 12:08:33;;;;;;;3.17;0.82;;;;;;;;;;6241385;23;20027;-75
2022/01/18 12:11:02;;;;;;;1.50;0.30;;;;;;;;;;6242821;23;20016;-75
2022/01/18 12:13:42;;;;;;;1.70;0.50;;;;;;;;;;6243548;23;20448;-75
2022/01/18 12:16:19;;;;;;;1.73;0.50;;;;;;;;;;6242040;23;20055;-74
2022/01/18 12:19:00;;;;;;;0.93;0.20;;;;;;;;;;6243680;23;20024;-74
2022/01/18 12:21:30;;;;;;;0.82;0.17;;;;;;;;;;6242974;23;20021;-75
2022/01/18 12:24:00;;;;;;;1.30;0.20;;;;;;;;;;6215937;23;20016;-74
2022/01/18 12:26:32;;;;;;;1.35;0.50;;;;;;;;;;6243855;23;20023;-74
2022/01/18 12:38:11;;;;;;;2.45;0.40;;;;;;;;;;6243561;23;20012;-74
2022/01/18 12:40:45;;;;;;;2.42;0.20;;;;;;;;;;6245005;23;20023;-74
2022/01/18 12:46:01;;;;;;;1.20;0.30;;;;;;;;;;6244234;23;20084;-74
2022/01/18 12:48:31;;;;;;;4.07;0.30;;;;;;;;;;6243726;23;20034;-74
2022/01/18 12:51:07;;;;;;;1.98;0.40;;;;;;;;;;6244924;23;20070;-75
2022/01/18 12:53:42;;;;;;;1.67;0.60;;;;;;;;;;6243881;23;20024;-74
2022/01/18 12:56:17;;;;;;;4.85;0.50;;;;;;;;;;6244787;23;20016;-74
2022/01/18 12:58:48;;;;;;;2.10;0.53;;;;;;;;;;6244262;23;20024;-74
2022/01/18 13:01:19;;;;;;;2.42;0.68;;;;;;;;;;6244092;23;20016;-74
2022/01/18 13:03:49;;;;;;;1.48;0.38;;;;;;;;;;6217264;23;20016;-74
2022/01/18 13:06:20;;;;;;;2.65;0.60;;;;;;;;;;6243745;23;20091;-74
2022/01/18 13:08:50;;;;;;;1.02;0.20;;;;;;;;;;6244695;23;20027;-74
2022/01/18 13:11:20;;;;;;;3.77;0.43;;;;;;;;;;6244645;23;20020;-74
2022/01/18 13:13:55;;;;;;;1.00;0.22;;;;;;;;;;6244145;23;20054;-74
2022/01/18 13:25:07;;;;;;;1.70;0.30;;;;;;;;;;6244901;23;20083;-75
2022/01/18 13:27:41;;;;;;;3.63;0.40;;;;;;;;;;6243774;22;20027;-74
2022/01/18 13:30:16;;;;;;;0.90;0.40;;;;;;;;;;6242883;23;20031;-74
2022/01/18 13:32:45;;;;;;;2.63;0.40;;;;;;;;;;6243590;23;20012;-74
2022/01/18 13:35:16;;;;;;;1.38;0.22;;;;;;;;;;6244054;23;20079;-74
2022/01/18 13:37:46;;;;;;;2.83;0.50;;;;;;;;;;6244668;23;20020;-74
2022/01/18 13:40:18;;;;;;;1.55;0.43;;;;;;;;;;6243837;23;20020;-74
2022/01/18 13:42:48;;;;;;;1.48;0.30;;;;;;;;;;6243461;23;20024;-74
2022/01/18 13:45:19;;;;;;;4.50;0.50;;;;;;;;;;6243725;23;20049;-74
2022/01/18 13:47:53;;;;;;;3.13;0.60;;;;;;;;;;6242742;23;20017;-74
2022/01/18 13:50:40;;;;;;;2.73;0.60;;;;;;;;;;6244080;23;20024;-74
2022/01/18 13:53:12;;;;;;;2.28;0.38;;;;;;;;;;6243884;23;20039;-74
2022/01/18 13:55:46;;;;;;;1.45;0.45;;;;;;;;;;6243194;23;20027;-74
2022/01/18 13:58:19;;;;;;;2.10;0.47;;;;;;;;;;6244338;23;20023;-74
2022/01/18 14:00:49;;;;;;;1.45;0.20;;;;;;;;;;6244209;23;20024;-75
2022/01/18 14:03:31;;;;;;;1.10;0.20;;;;;;;;;;6244158;23;20078;-74
2022/01/18 14:06:01;;;;;;;1.52;0.40;;;;;;;;;;6244431;23;20376;-74
2022/01/18 14:08:36;;;;;;;1.70;0.30;;;;;;;;;;6242480;23;20458;-74
2022/01/18 14:11:05;;;;;;;1.58;0.50;;;;;;;;;;6244908;23;20021;-74
2022/01/18 14:13:37;;;;;;;3.72;0.77;;;;;;;;;;6243868;23;20020;-74
2022/01/18 14:16:22;;;;;;;1.33;0.30;;;;;;;;;;6245052;23;20392;-74
2022/01/18 14:18:55;;;;;;;2.53;0.75;;;;;;;;;;6243309;23;20329;-74
2022/01/18 14:21:31;;;;;;;4.10;0.60;;;;;;;;;;6245451;23;20019;-74
2022/01/18 14:24:22;;;;;;;2.60;0.35;;;;;;;;;;6243036;23;20016;-74
2022/01/18 14:27:02;;;;;;;1.58;0.47;;;;;;;;;;6238309;23;20074;-74
2022/01/18 14:29:46;;;;;;;1.73;0.50;;;;;;;;;;6214913;23;20028;-74
2022/01/18 14:32:16;;;;;;;1.58;0.38;;;;;;;;;;6239993;23;20051;-75
2022/01/18 14:34:51;;;;;;;2.00;0.30;;;;;;;;;;6241211;23;20020;-74
2022/01/18 14:37:21;;;;;;;2.40;0.70;;;;;;;;;;6243358;23;20016;-78
2022/01/18 14:39:57;;;;;;;4.15;0.60;;;;;;;;;;6242138;23;20031;-74
2022/01/18 14:45:36;;;;;;;2.90;0.57;;;;;;;;;;6243810;23;20023;-73
2022/01/18 14:48:09;;;;;;;2.20;0.28;;;;;;;;;;6242711;23;20062;-74
2022/01/18 14:50:45;;;;;;;1.55;0.32;;;;;;;;;;6243687;23;20031;-74
2022/01/18 14:53:14;;;;;;;2.63;0.50;;;;;;;;;;6244639;23;20028;-74
2022/01/18 14:55:43;;;;;;;1.67;0.40;;;;;;;;;;6242274;23;20023;-73
2022/01/18 14:58:14;;;;;;;3.88;0.77;;;;;;;;;;6242449;23;20044;-73
2022/01/18 15:00:43;;;;;;;1.85;0.60;;;;;;;;;;6242790;23;20044;-74
2022/01/18 15:03:13;;;;;;;4.07;0.88;;;;;;;;;;6244060;23;20016;-74
2022/01/18 15:05:42;;;;;;;1.50;0.40;;;;;;;;;;6244696;23;20056;-73
2022/01/18 15:08:13;;;;;;;3.87;0.77;;;;;;;;;;6244454;23;20028;-74
2022/01/18 15:10:42;;;;;;;1.98;0.77;;;;;;;;;;6245480;23;20026;-73
2022/01/18 15:13:10;;;;;;;1.90;0.68;;;;;;;;;;6242471;23;20043;-74
2022/01/18 15:15:41;;;;;;;6.05;0.80;;;;;;;;;;6243719;23;20016;-74
2022/01/18 15:18:10;;;;;;;2.35;0.75;;;;;;;;;;6242222;23;20548;-71
2022/01/18 15:20:39;;;;;;;3.83;1.07;;;;;;;;;;6244160;23;20019;-74
2022/01/18 15:23:08;;;;;;;8.10;0.47;;;;;;;;;;6243988;23;20423;-72
2022/01/18 15:25:53;;;;;;;3.67;1.30;;;;;;;;;;6243536;23;20161;-73
2022/01/18 15:28:23;;;;;;;4.82;1.00;;;;;;;;;;6243977;22;20020;-74
2022/01/18 15:30:53;;;;;;;2.53;0.80;;;;;;;;;;6242882;23;20019;-72
2022/01/18 15:33:22;;;;;;;1.77;0.63;;;;;;;;;;6243827;23;20020;-73
2022/01/18 15:35:51;;;;;;;2.38;1.25;;;;;;;;;;6244636;23;20012;-73
2022/01/18 15:38:20;;;;;;;9.93;1.50;;;;;;;;;;6247727;23;20078;-71
2022/01/18 15:40:50;;;;;;;2.83;0.98;;;;;;;;;;6246398;23;20020;-70
2022/01/18 15:43:20;;;;;;;4.05;0.68;;;;;;;;;;6247527;23;20013;-71
2022/01/18 15:45:49;;;;;;;4.00;0.93;;;;;;;;;;6245223;23;20047;-71
2022/01/18 15:48:20;;;;;;;1.52;0.60;;;;;;;;;;6246639;23;20555;-71
2022/01/18 15:50:49;;;;;;;3.20;0.40;;;;;;;;;;6245313;23;20016;-71
2022/01/18 15:53:18;;;;;;;4.60;0.50;;;;;;;;;;6247440;23;20024;-70
2022/01/18 15:55:49;;;;;;;2.78;0.40;;;;;;;;;;6248033;23;20087;-70
2022/01/18 15:58:19;;;;;;;1.77;0.50;;;;;;;;;;6247397;23;20020;-73
2022/01/18 16:00:49;;;;;;;1.83;0.50;;;;;;;;;;6248320;23;20043;-71
2022/01/18 16:03:25;;;;;;;2.72;0.60;;;;;;;;;;6246147;23;20016;-73
2022/01/18 16:05:54;;;;;;;6.15;1.88;;;;;;;;;;6245749;23;20020;-74
2022/01/18 16:08:24;;;;;;;6.53;2.00;;;;;;;;;;6247248;23;20012;-72
2022/01/18 16:10:54;;;;;;;6.90;1.67;;;;;;;;;;6254847;23;20020;-77
2022/01/18 16:13:24;;;;;;;3.35;1.30;;;;;;;;;;6256344;23;20016;-76
2022/01/18 16:15:54;;;;;;;4.82;1.40;;;;;;;;;;6250963;23;20024;-75
2022/01/18 16:22:29;;;;;;;3.90;1.15;;;;;;;;;;6279915;22;20015;-81
2022/01/18 16:24:59;;;;;;;2.87;0.87;;;;;;;;;;6273137;22;20314;-81
2022/01/18 16:27:29;;;;;;;2.40;0.70;;;;;;;;;;6251010;22;20173;-81
2022/01/18 16:29:57;;;;;;;2.25;0.60;;;;;;;;;;6250123;22;20479;-81
2022/01/18 16:32:26;;;;;;;2.85;0.75;;;;;;;;;;6271527;22;20145;-73
2022/01/18 16:34:55;;;;;;;2.92;0.68;;;;;;;;;;6303241;22;20008;-71
2022/01/18 16:37:24;;;;;;;2.73;0.70;;;;;;;;;;6276001;22;20026;-75
2022/01/18 16:39:55;;;;;;;2.17;0.70;;;;;;;;;;6276099;22;20102;-78
2022/01/18 16:42:23;;;;;;;2.70;0.70;;;;;;;;;;6301415;22;20477;-80
2022/01/18 16:44:51;;;;;;;2.72;0.90;;;;;;;;;;6303212;22;20177;-77
2022/01/18 16:47:21;;;;;;;3.53;0.73;;;;;;;;;;6272790;22;20054;-76
2022/01/18 16:49:50;;;;;;;2.70;0.90;;;;;;;;;;6250949;22;20023;-79
2022/01/18 16:52:19;;;;;;;4.50;1.35;;;;;;;;;;6274524;22;20030;-79
2022/01/18 16:54:48;;;;;;;4.97;1.63;;;;;;;;;;6276408;22;20080;-79
2022/01/18 16:57:18;;;;;;;4.53;1.92;;;;;;;;;;6301352;22;20011;-82
2022/01/18 16:59:47;;;;;;;4.68;1.52;;;;;;;;;;6304139;22;20066;-77
2022/01/18 17:02:15;;;;;;;6.57;2.40;;;;;;;;;;6301581;22;20137;-85
2022/01/18 17:04:44;;;;;;;5.32;2.10;;;;;;;;;;6276146;22;20065;-76
2022/01/18 17:07:12;;;;;;;3.42;1.17;;;;;;;;;;6302921;22;20731;-76
2022/01/18 17:09:41;;;;;;;7.75;1.65;;;;;;;;;;6289212;22;20082;-77
2022/01/18 17:12:11;;;;;;;2.75;1.23;;;;;;;;;;6301755;22;20035;-77
2022/01/18 17:14:41;;;;;;;4.00;1.47;;;;;;;;;;6302447;22;20030;-77
2022/01/18 17:17:11;;;;;;;3.25;1.40;;;;;;;;;;6299210;22;20027;-74
2022/01/18 17:20:06;;;;;;;3.83;1.48;;;;;;;;;;6295061;22;20094;-79
2022/01/18 17:22:35;;;;;;;2.67;0.82;;;;;;;;;;6301500;22;20011;-75
2022/01/18 17:25:05;;;;;;;3.67;0.82;;;;;;;;;;6300324;22;20067;-74
2022/01/18 17:27:35;;;;;;;4.63;1.20;;;;;;;;;;6249715;22;20314;-74
2022/01/18 17:30:05;;;;;;;3.03;1.17;;;;;;;;;;6301481;22;20046;-75
2022/01/18 17:32:34;;;;;;;3.53;1.33;;;;;;;;;;6298867;22;20027;-74
2022/01/18 17:35:03;;;;;;;3.47;1.70;;;;;;;;;;6302650;22;20129;-74
2022/01/18 17:37:32;;;;;;;3.13;1.17;;;;;;;;;;6302301;22;20022;-74
2022/01/18 17:40:00;;;;;;;3.67;1.00;;;;;;;;;;6303310;22;20015;-74
2022/01/18 17:42:29;;;;;;;3.22;0.85;;;;;;;;;;6302321;22;20027;-74
2022/01/18 17:44:58;;;;;;;5.13;1.50;;;;;;;;;;6304077;22;20035;-73
2022/01/18 17:47:27;;;;;;;3.22;1.30;;;;;;;;;;6299339;22;20129;-85
2022/01/18 17:49:57;;;;;;;3.60;1.05;;;;;;;;;;6276345;22;20322;-78
2022/01/18 17:52:26;;;;;;;2.83;1.20;;;;;;;;;;6302832;22;20053;-78
2022/01/18 17:54:55;;;;;;;4.50;1.40;;;;;;;;;;6303590;22;20015;-80
2022/01/18 17:57:24;;;;;;;5.35;1.63;;;;;;;;;;6303301;22;20015;-79
2022/01/18 17:59:53;;;;;;;4.57;1.65;;;;;;;;;;6300793;22;20441;-78
2022/01/18 18:02:22;;;;;;;3.58;1.67;;;;;;;;;;6300308;22;20034;-79
2022/01/18 18:04:52;;;;;;;2.53;1.23;;;;;;;;;;6303278;22;20076;-79
2022/01/18 18:07:20;;;;;;;5.38;1.75;;;;;;;;;;6302653;22;20015;-79
2022/01/18 18:09:49;;;;;;;3.75;1.58;;;;;;;;;;6303746;22;20027;-79
2022/01/18 18:12:18;;;;;;;6.75;1.40;;;;;;;;;;6312924;22;20397;-85
2022/01/18 18:14:48;;;;;;;8.88;1.58;;;;;;;;;;6299354;22;20033;-76
2022/01/18 18:17:17;;;;;;;4.63;1.50;;;;;;;;;;6301132;22;20113;-78
2022/01/18 18:19:46;;;;;;;4.00;1.40;;;;;;;;;;6298429;22;20015;-78
2022/01/18 18:22:17;;;;;;;4.75;1.40;;;;;;;;;;6301573;22;20189;-78
2022/01/18 18:24:46;;;;;;;5.78;2.72;;;;;;;;;;6299292;22;20076;-78
2022/01/18 18:27:39;;;;;;;7.20;2.42;;;;;;;;;;6302163;22;20367;-78
2022/01/18 18:30:10;;;;;;;5.37;2.00;;;;;;;;;;6300600;22;20011;-78
2022/01/18 18:32:38;;;;;;;3.92;1.80;;;;;;;;;;6298684;22;20084;-80
2022/01/18 18:35:09;;;;;;;5.38;1.77;;;;;;;;;;6301504;22;20097;-79
2022/01/18 18:37:39;;;;;;;4.80;1.30;;;;;;;;;;6300827;22;20016;-79
2022/01/18 18:40:12;;;;;;;4.07;1.80;;;;;;;;;;6303414;22;20065;-78
2022/01/18 18:42:59;;;;;;;6.93;2.80;;;;;;;;;;6301938;22;20378;-78
2022/01/18 18:45:30;;;;;;;6.43;1.83;;;;;;;;;;6299242;22;20318;-78
2022/01/18 18:47:59;;;;;;;5.50;2.00;;;;;;;;;;6300227;22;20076;-78
2022/01/18 18:50:28;;;;;;;6.43;1.85;;;;;;;;;;6299912;22;20330;-87
2022/01/18 18:52:59;;;;;;;4.15;1.90;;;;;;;;;;6300524;22;20023;-78
2022/01/18 18:55:28;;;;;;;4.83;2.17;;;;;;;;;;6297129;22;20106;-77
2022/01/18 18:58:08;;;;;;;3.47;1.55;;;;;;;;;;6300804;22;20467;-76
2022/01/18 19:03:27;;;;;;;3.53;1.48;;;;;;;;;;6260546;22;20045;-77
2022/01/18 19:05:58;;;;;;;6.38;2.00;;;;;;;;;;6301851;22;20019;-76
2022/01/18 19:08:29;;;;;;;4.07;1.50;;;;;;;;;;6299508;22;20015;-76
2022/01/18 19:11:01;;;;;;;5.72;2.00;;;;;;;;;;6302396;22;20031;-75
2022/01/18 19:13:47;;;;;;;;;;;;;;;;;;;;;
2022/01/18 19:16:33;;;;;;;;;;;;;;;;;;;;;
2022/01/18 19:19:25;;;;;;;3.78;1.52;;;;;;;;;;6274322;22;20340;-76
2022/01/18 19:21:54;;;;;;;4.63;2.30;;;;;;;;;;6301707;22;20015;-80
2022/01/18 19:24:24;;;;;;;5.63;2.25;;;;;;;;;;6298709;22;20102;-77
2022/01/18 19:26:54;;;;;;;7.55;2.63;;;;;;;;;;6300987;22;20082;-77
2022/01/18 19:29:23;;;;;;;13.85;5.05;;;;;;;;;;6302244;22;20015;-80
2022/01/18 19:31:52;;;;;;;26.40;11.13;;;;;;;;;;6297310;22;20019;-78
2022/01/18 19:34:22;;;;;;;23.67;8.63;;;;;;;;;;6300939;22;20019;-77
2022/01/18 19:36:51;;;;;;;17.30;6.38;;;;;;;;;;6300988;22;20294;-76
2022/01/18 19:39:20;;;;;;;10.52;4.18;;;;;;;;;;6301278;22;20011;-77
2022/01/18 19:41:52;;;;;;;6.47;3.55;;;;;;;;;;6298330;22;20019;-77
2022/01/18 19:44:20;;;;;;;6.88;3.72;;;;;;;;;;6301617;22;20086;-77
2022/01/18 19:46:49;;;;;;;6.73;1.70;;;;;;;;;;6299768;22;20442;-76
2022/01/18 19:49:18;;;;;;;4.20;2.17;;;;;;;;;;6303543;22;20040;-77
2022/01/18 19:51:47;;;;;;;6.20;2.88;;;;;;;;;;6297737;22;20022;-76
2022/01/18 19:54:16;;;;;;;5.65;3.15;;;;;;;;;;6303194;22;20065;-79
2022/01/18 20:04:04;;;;;;;6.00;2.15;;;;;;;;;;6303598;22;20007;-77
2022/01/18 20:06:32;;;;;;;4.82;1.23;;;;;;;;;;6303821;22;20023;-76
2022/01/18 20:09:03;;;;;;;4.03;1.30;;;;;;;;;;6303667;22;20510;-77
2022/01/18 20:11:38;;;;;;;2.60;1.27;;;;;;;;;;6303996;22;20022;-76
2022/01/18 20:14:32;;;;;;;3.73;1.90;;;;;;;;;;6305425;22;20015;-77
2022/01/18 20:17:05;;;;;;;3.22;1.40;;;;;;;;;;6306114;22;20030;-78
2022/01/18 20:19:37;;;;;;;4.18;1.83;;;;;;;;;;6277203;22;20043;-77
2022/01/18 20:22:11;;;;;;;5.25;1.60;;;;;;;;;;6303837;22;20033;-76
2022/01/18 20:25:05;;;;;;;4.70;1.67;;;;;;;;;;6273491;22;20012;-77
2022/01/18 20:27:37;;;;;;;3.90;1.23;;;;;;;;;;6270055;22;20073;-77
2022/01/18 20:30:10;;;;;;;2.38;0.98;;;;;;;;;;6268493;22;20027;-78
2022/01/18 20:32:40;;;;;;;1.85;0.40;;;;;;;;;;6269961;22;20022;-77
2022/01/18 20:35:13;;;;;;;3.72;0.73;;;;;;;;;;6272153;22;20041;-77
2022/01/18 20:37:44;;;;;;;1.90;0.55;;;;;;;;;;6271342;22;20099;-76
2022/01/18 20:40:14;;;;;;;4.03;1.17;;;;;;;;;;6271634;22;20026;-76
2022/01/18 20:45:34;;;;;;;1.58;0.30;;;;;;;;;;6271261;22;20015;-76
2022/01/18 20:48:07;;;;;;;0.98;0.20;;;;;;;;;;6271031;22;20398;-76
2022/01/18 20:51:01;;;;;;;2.58;1.23;;;;;;;;;;6220549;22;20510;-78
2022/01/18 20:53:35;;;;;;;2.40;1.00;;;;;;;;;;6271488;22;20026;-77
2022/01/18 20:56:06;;;;;;;2.70;1.20;;;;;;;;;;6272135;22;20015;-79
2022/01/18 20:58:36;;;;;;;3.60;0.98;;;;;;;;;;6270904;22;20026;-77
2022/01/18 21:01:07;;;;;;;4.68;1.35;;;;;;;;;;6269917;22;20016;-77
2022/01/18 21:03:36;;;;;;;2.00;0.70;;;;;;;;;;6273297;22;20176;-77
2022/01/18 21:06:09;;;;;;;2.60;0.80;;;;;;;;;;6245620;22;20119;-78
2022/01/18 21:08:40;;;;;;;2.85;1.05;;;;;;;;;;6271130;22;20153;-78
2022/01/18 21:11:09;;;;;;;1.70;0.68;;;;;;;;;;6272532;22;20016;-78
2022/01/18 21:13:48;;;;;;;3.25;1.42;;;;;;;;;;6273328;22;20018;-77
2022/01/18 21:16:18;;;;;;;4.78;1.50;;;;;;;;;;6272207;22;20856;-78
2022/01/18 21:18:47;;;;;;;2.47;1.17;;;;;;;;;;6247528;22;20146;-77
2022/01/18 21:21:18;;;;;;;2.20;0.70;;;;;;;;;;6277003;22;20095;-77
2022/01/18 21:23:48;;;;;;;2.40;0.73;;;;;;;;;;6291440;22;20019;-78
2022/01/18 21:26:18;;;;;;;2.25;0.90;;;;;;;;;;6301213;22;20026;-77
2022/01/18 21:28:47;;;;;;;3.33;0.88;;;;;;;;;;6302845;22;20110;-77
2022/01/18 21:31:17;;;;;;;1.47;0.47;;;;;;;;;;6301325;22;20008;-80
2022/01/18 21:33:47;;;;;;;1.40;0.47;;;;;;;;;;6301402;22;20485;-80
2022/01/18 21:36:41;;;;;;;2.15;0.60;;;;;;;;;;6301824;22;20102;-77
2022/01/18 21:39:12;;;;;;;3.72;1.00;;;;;;;;;;6303782;22;20011;-80
2022/01/18 21:41:42;;;;;;;2.45;0.60;;;;;;;;;;6304840;22;20045;-77
2022/01/18 21:44:10;;;;;;;2.87;0.70;;;;;;;;;;6302679;22;20078;-79
2022/01/18 21:46:43;;;;;;;3.08;1.30;;;;;;;;;;6301594;22;20031;-79
2022/01/18 21:49:12;;;;;;;3.13;0.77;;;;;;;;;;6302600;22;20019;-78
2022/01/18 21:51:40;;;;;;;2.00;0.75;;;;;;;;;;6303828;22;20019;-79
2022/01/18 21:54:10;;;;;;;2.35;0.80;;;;;;;;;;6302845;22;20072;-79
2022/01/18 21:56:41;;;;;;;1.60;0.50;;;;;;;;;;6303733;22;20019;-80